Time;durP1;ratioP1;P1;durP2;ratioP2;P2;SDS_P1;SDS_P2;PMS_P1;PMS_P2;Temp;Humidity;BMP_temperature;BMP_pressure;BME280_temperature;BME280_humidity;BME280_pressure;Samples;Min_cycle;Max_cycle;Signal;HPM_P1;HPM_P2
2021/12/09 00:02:37;;;;;;;14.25;5.55;;;;;;;2.70;96.05;100075.81;10540127;28;20128;-74
2021/12/09 00:07:37;;;;;;;26.00;7.00;;;;;;;2.69;96.24;100076.81;10540116;28;20550;-74
2021/12/09 00:12:38;;;;;;;26.88;6.95;;;;;;;2.69;95.79;100087.50;10522482;28;20451;-75
2021/12/09 00:17:38;;;;;;;13.68;6.35;;;;;;;2.73;96.17;100086.16;10540482;28;20063;-74
2021/12/09 00:22:38;;;;;;;21.27;7.28;;;;;;;2.75;95.83;100086.84;10539687;28;20032;-73
2021/12/09 00:27:39;;;;;;;11.02;8.00;;;;;;;2.74;96.69;100084.31;10540308;28;20047;-76
2021/12/09 00:32:40;;;;;;;9.43;6.63;;;;;;;2.60;97.35;100085.00;10539465;28;20392;-75
2021/12/09 00:37:51;;;;;;;18.27;9.45;;;;;;;2.49;97.27;100092.34;10539357;28;20032;-74
2021/12/09 00:42:52;;;;;;;16.50;8.93;;;;;;;2.46;97.84;100094.53;10540428;28;20104;-75
2021/12/09 00:47:52;;;;;;;26.83;10.82;;;;;;;2.39;97.26;100098.81;10540408;28;20063;-73
2021/12/09 00:52:53;;;;;;;19.13;9.48;;;;;;;2.40;98.43;100101.34;10539036;28;20115;-74
2021/12/09 00:57:53;;;;;;;17.48;9.57;;;;;;;2.36;97.51;100102.66;10537773;28;20137;-74
2021/12/09 01:02:54;;;;;;;16.50;9.43;;;;;;;2.38;97.85;100092.66;10540016;28;20042;-75
2021/12/09 01:07:54;;;;;;;18.33;10.73;;;;;;;2.35;97.76;100090.31;10540026;28;20340;-75
2021/12/09 01:12:55;;;;;;;41.72;8.65;;;;;;;2.42;97.67;100099.31;10540911;28;20054;-74
2021/12/09 01:17:55;;;;;;;26.42;10.57;;;;;;;2.37;98.38;100093.66;10546799;28;20383;-74
2021/12/09 01:22:57;;;;;;;28.92;9.63;;;;;;;2.42;97.25;100101.16;10545870;28;20038;-74
2021/12/09 01:27:57;;;;;;;19.90;9.90;;;;;;;2.42;96.39;100099.31;10528941;28;20465;-73
2021/12/09 01:32:58;;;;;;;22.70;9.02;;;;;;;2.36;96.25;100091.97;10546970;28;20059;-75
2021/12/09 01:38:01;;;;;;;19.17;8.30;;;;;;;2.36;95.94;100094.63;10545638;28;20028;-75
2021/12/09 01:43:02;;;;;;;26.58;8.65;;;;;;;2.36;96.01;100096.47;10546416;28;20386;-75
2021/12/09 01:48:02;;;;;;;20.88;8.77;;;;;;;2.29;95.95;100099.81;10546415;28;20039;-75
2021/12/09 01:53:03;;;;;;;32.08;8.93;;;;;;;2.28;96.49;100102.66;10545507;28;20032;-74
2021/12/09 01:58:04;;;;;;;18.42;6.72;;;;;;;2.27;95.19;100112.50;10545389;28;20107;-74
2021/12/09 02:03:05;;;;;;;14.90;8.30;;;;;;;2.25;96.10;100117.16;10545523;28;20035;-73
2021/12/09 02:08:06;;;;;;;22.83;8.40;;;;;;;2.27;96.18;100117.03;10546345;28;20079;-74
2021/12/09 02:13:06;;;;;;;30.10;9.38;;;;;;;2.25;96.27;100108.31;10545410;28;20067;-74
2021/12/09 02:18:07;;;;;;;23.10;8.35;;;;;;;2.26;96.18;100104.63;10543870;28;20471;-74
2021/12/09 02:23:11;;;;;;;16.65;7.55;;;;;;;2.22;96.76;100108.66;10528399;28;20034;-73
2021/12/09 02:28:13;;;;;;;12.15;5.50;;;;;;;2.16;97.30;100119.97;10542603;28;20460;-74
2021/12/09 02:33:14;;;;;;;30.90;8.07;;;;;;;2.27;96.71;100106.34;10543202;28;20039;-73
2021/12/09 02:38:14;;;;;;;26.70;5.93;;;;;;;2.27;98.31;100114.34;10544350;28;20383;-75
2021/12/09 02:43:15;;;;;;;24.55;8.10;;;;;;;2.29;97.58;100113.16;10543952;28;20039;-74
2021/12/09 02:48:16;;;;;;;16.30;6.63;;;;;;;2.40;98.02;100108.53;10542703;28;20028;-74
2021/12/09 02:53:17;;;;;;;18.52;6.35;;;;;;;2.40;97.35;100108.53;10526099;28;20032;-75
2021/12/09 02:58:17;;;;;;;21.80;7.97;;;;;;;2.31;96.69;100100.47;10508707;28;20024;-73
2021/12/09 03:03:18;;;;;;;29.90;9.55;;;;;;;2.28;97.27;100108.00;10543587;28;20035;-75
2021/12/09 03:08:23;;;;;;;17.58;6.95;;;;;;;2.28;96.48;100105.31;10543911;28;20105;-74
2021/12/09 03:13:23;;;;;;;31.80;10.00;;;;;;;2.16;95.64;100114.63;10542057;28;20056;-73
2021/12/09 03:18:24;;;;;;;21.00;9.18;;;;;;;2.17;96.02;100111.81;10542637;28;20078;-75
2021/12/09 03:23:26;;;;;;;19.35;6.18;;;;;;;2.11;95.96;100112.47;10541520;28;20039;-74
2021/12/09 03:28:26;;;;;;;15.88;7.72;;;;;;;2.05;96.90;100111.28;10543719;28;20032;-74
2021/12/09 03:33:27;;;;;;;18.25;8.77;;;;;;;2.11;97.11;100117.81;10542531;28;20360;-74
2021/12/09 03:38:27;;;;;;;16.40;7.65;;;;;;;2.13;96.69;100115.78;10523566;28;20040;-73
2021/12/09 03:43:27;;;;;;;15.38;6.57;;;;;;;2.10;95.94;100122.28;10540278;28;20169;-75
2021/12/09 03:48:28;;;;;;;23.73;8.57;;;;;;;2.09;98.21;100115.28;10540296;28;20064;-75
2021/12/09 03:53:29;;;;;;;8.85;5.22;;;;;;;2.11;97.93;100117.81;10540094;28;20146;-75
2021/12/09 03:58:30;;;;;;;25.88;8.68;;;;;;;2.18;97.34;100128.69;10541087;28;20042;-74
2021/12/09 04:03:30;;;;;;;19.52;8.13;;;;;;;2.20;97.72;100124.84;10540284;28;20028;-75
2021/12/09 04:08:30;;;;;;;9.75;6.68;;;;;;;2.19;97.91;100130.34;10542079;28;20196;-76
2021/12/09 04:13:32;;;;;;;14.32;7.10;;;;;;;2.21;97.69;100121.16;10539421;28;20128;-75
2021/12/09 04:18:34;;;;;;;11.27;5.43;;;;;;;2.20;97.23;100130.19;10540325;28;20047;-75
2021/12/09 04:23:35;;;;;;;10.50;5.95;;;;;;;2.19;98.02;100116.97;10538385;28;20032;-74
2021/12/09 04:28:36;;;;;;;28.00;8.10;;;;;;;2.23;97.33;100123.66;10540049;28;20040;-75
2021/12/09 04:33:36;;;;;;;20.85;6.82;;;;;;;2.23;97.84;100126.34;10539752;28;20118;-75
2021/12/09 04:38:37;;;;;;;13.90;6.13;;;;;;;2.24;97.46;100133.38;10540711;28;20039;-75
2021/12/09 04:43:40;;;;;;;14.27;5.82;;;;;;;2.19;96.26;100141.03;10539674;28;20360;-74
2021/12/09 04:48:40;;;;;;;8.15;5.00;;;;;;;2.17;99.23;100137.66;10545388;28;20032;-74
2021/12/09 04:53:41;;;;;;;16.98;8.43;;;;;;;2.28;99.14;100150.75;10554045;28;20089;-75
2021/12/09 04:58:41;;;;;;;28.33;9.20;;;;;;;2.28;98.52;100156.91;10553367;28;20075;-75
2021/12/09 05:03:45;;;;;;;10.77;5.93;;;;;;;2.28;99.01;100153.41;10553496;28;20081;-75
2021/12/09 05:08:48;;;;;;;20.02;7.18;;;;;;;2.35;99.46;100153.59;10555333;28;20056;-75
2021/12/09 05:13:48;;;;;;;13.00;4.63;;;;;;;2.41;98.09;100158.28;10552407;28;20036;-74
2021/12/09 05:18:50;;;;;;;14.27;5.55;;;;;;;2.37;98.21;100159.63;10551920;28;20463;-73
2021/12/09 05:23:50;;;;;;;14.25;5.55;;;;;;;2.35;98.69;100165.13;10553370;28;20081;-74
2021/12/09 05:28:55;;;;;;;11.18;6.03;;;;;;;2.34;98.15;100166.13;10551417;28;20437;-74
2021/12/09 05:33:58;;;;;;;36.25;7.35;;;;;;;2.29;97.71;100168.44;10552054;28;20467;-74
2021/12/09 05:38:59;;;;;;;9.35;4.57;;;;;;;2.27;98.12;100160.59;10553757;28;20032;-74
2021/12/09 05:44:02;;;;;;;13.95;5.88;;;;;;;2.28;98.75;100164.09;10554900;28;20507;-77
2021/12/09 05:49:03;;;;;;;14.23;6.30;;;;;;;2.30;97.65;100162.94;10540871;28;20416;-76
2021/12/09 05:54:04;;;;;;;22.02;6.35;;;;;;;2.23;98.16;100177.91;10556951;28;20112;-77
2021/12/09 05:59:05;;;;;;;17.50;6.60;;;;;;;2.43;100.00;100175.84;10531773;28;20372;-74
2021/12/09 06:04:06;;;;;;;26.00;7.82;;;;;;;2.68;100.00;100178.56;10486570;28;20048;-75
2021/12/09 06:09:07;;;;;;;14.30;7.50;;;;;;;2.65;100.00;100182.41;10544595;28;20048;-73
2021/12/09 06:14:08;;;;;;;17.15;6.35;;;;;;;2.64;100.00;100183.38;10544688;28;20040;-72
2021/12/09 06:19:09;;;;;;;26.83;6.93;;;;;;;2.59;99.84;100183.06;10543161;28;20044;-71
2021/12/09 06:24:10;;;;;;;13.35;5.43;;;;;;;2.54;98.89;100186.22;10544522;28;20028;-73
2021/12/09 06:29:10;;;;;;;10.57;5.00;;;;;;;2.41;99.28;100185.84;10544413;28;20453;-73
2021/12/09 06:34:12;;;;;;;14.95;5.22;;;;;;;2.43;98.40;100191.88;10544354;28;20024;-73
2021/12/09 06:39:13;;;;;;;23.30;5.93;;;;;;;2.46;99.19;100185.38;10527468;28;20068;-74
2021/12/09 06:44:13;;;;;;;29.92;7.63;;;;;;;2.56;99.31;100189.56;10542896;28;20033;-71
2021/12/09 06:49:14;;;;;;;21.23;7.80;;;;;;;2.50;98.85;100187.53;10543772;28;20032;-73
2021/12/09 06:54:14;;;;;;;19.75;6.85;;;;;;;2.48;99.51;100178.84;10542677;28;20036;-74
2021/12/09 06:59:14;;;;;;;16.90;7.20;;;;;;;2.50;99.56;100182.19;10541934;28;20032;-75
2021/12/09 07:04:15;;;;;;;11.65;7.18;;;;;;;2.50;99.17;100192.88;10542684;28;20028;-74
2021/12/09 07:09:15;;;;;;;27.05;6.80;;;;;;;2.53;99.24;100192.56;10524906;28;20051;-73
2021/12/09 07:14:17;;;;;;;25.08;8.43;;;;;;;2.60;98.82;100195.41;10543199;28;20122;-74
2021/12/09 07:19:17;;;;;;;13.55;6.43;;;;;;;2.61;98.18;100194.41;10542256;28;20520;-73
2021/12/09 07:24:18;;;;;;;11.02;6.28;;;;;;;2.67;99.29;100196.44;10541637;28;20069;-74
2021/12/09 07:29:19;;;;;;;19.52;8.95;;;;;;;2.79;100.00;100202.31;10542609;28;20048;-74
2021/12/09 07:34:21;;;;;;;16.50;8.82;;;;;;;2.83;99.73;100214.34;10540375;28;20038;-73
2021/12/09 07:39:21;;;;;;;15.68;9.63;;;;;;;2.99;100.00;100213.53;10539990;28;20505;-74
2021/12/09 07:44:22;;;;;;;45.17;12.27;;;;;;;3.19;100.00;100214.06;10540196;28;20124;-73
2021/12/09 07:49:23;;;;;;;13.23;7.75;;;;;;;3.36;100.00;100226.44;10540846;28;20032;-74
2021/12/09 07:54:23;;;;;;;19.55;9.73;;;;;;;3.42;100.00;100219.59;10540790;28;20487;-73
2021/12/09 07:59:25;;;;;;;17.30;10.35;;;;;;;3.50;100.00;100228.44;10540538;28;20036;-73
2021/12/09 08:04:25;;;;;;;14.95;7.75;;;;;;;3.66;100.00;100237.47;10539203;28;20028;-74
2021/12/09 08:09:27;;;;;;;15.73;8.68;;;;;;;3.81;100.00;100246.50;10539950;28;20051;-73
2021/12/09 08:14:27;;;;;;;16.67;9.30;;;;;;;3.93;100.00;100246.97;10541116;28;20052;-74
2021/12/09 08:19:28;;;;;;;17.08;9.50;;;;;;;3.95;100.00;100242.28;10539773;28;20028;-73
2021/12/09 08:24:28;;;;;;;21.13;9.93;;;;;;;4.00;100.00;100242.59;10539482;28;20035;-73
2021/12/09 08:29:29;;;;;;;15.18;9.40;;;;;;;4.08;100.00;100239.88;10541155;28;20442;-74
2021/12/09 08:34:29;;;;;;;24.25;9.70;;;;;;;4.13;100.00;100236.72;10539714;28;20530;-74
2021/12/09 08:39:29;;;;;;;17.67;9.63;;;;;;;4.21;100.00;100234.00;10539735;28;20123;-73
2021/12/09 08:44:30;;;;;;;14.82;8.20;;;;;;;4.19;100.00;100236.84;10538577;28;20081;-73
2021/12/09 08:49:30;;;;;;;12.65;8.13;;;;;;;4.20;100.00;100245.72;10537039;28;20427;-73
2021/12/09 08:54:31;;;;;;;9.50;8.55;;;;;;;4.19;100.00;100247.56;10539141;28;20032;-74
2021/12/09 08:59:31;;;;;;;22.80;11.68;;;;;;;4.22;100.00;100253.63;10538776;28;20237;-73
2021/12/09 09:04:32;;;;;;;31.85;11.30;;;;;;;4.28;100.00;100244.88;10538225;28;20028;-73
2021/12/09 09:09:34;;;;;;;21.65;10.27;;;;;;;4.37;100.00;100252.72;10539661;28;20196;-74
2021/12/09 09:14:34;;;;;;;25.50;10.32;;;;;;;4.46;100.00;100252.66;10555254;28;20039;-73
2021/12/09 09:19:35;;;;;;;17.52;11.00;;;;;;;4.47;100.00;100252.50;10539720;28;20119;-75
2021/12/09 09:24:35;;;;;;;22.48;11.27;;;;;;;4.48;100.00;100256.03;10538453;28;20487;-74
2021/12/09 09:29:38;;;;;;;25.80;13.93;;;;;;;4.64;100.00;100266.69;10538346;28;20040;-73
2021/12/09 09:34:39;;;;;;;21.02;11.13;;;;;;;4.60;100.00;100265.38;10540979;28;20043;-73
2021/12/09 09:39:43;;;;;;;20.80;14.00;;;;;;;4.63;100.00;100265.03;10547305;28;20356;-74
2021/12/09 09:44:54;;;;;;;18.85;11.30;;;;;;;4.56;100.00;100262.19;10546604;28;20028;-73
2021/12/09 09:49:55;;;;;;;16.30;10.65;;;;;;;4.50;100.00;100272.75;10546187;28;20036;-73
2021/12/09 09:54:56;;;;;;;23.70;9.73;;;;;;;4.71;100.00;100280.22;10527691;28;20403;-73
2021/12/09 09:59:56;;;;;;;12.55;9.18;;;;;;;4.83;100.00;100279.66;10545065;28;20343;-73
2021/12/09 10:05:02;;;;;;;20.45;9.40;;;;;;;5.14;100.00;100276.16;10546228;28;20481;-73
2021/12/09 10:10:04;;;;;;;13.57;9.40;;;;;;;5.10;100.00;100275.63;10544577;28;20032;-73
2021/12/09 10:15:05;;;;;;;18.30;9.40;;;;;;;5.27;100.00;100271.03;10543278;28;20474;-73
2021/12/09 10:20:06;;;;;;;18.83;9.60;;;;;;;5.40;100.00;100270.41;10544390;28;20043;-71
2021/12/09 10:25:19;;;;;;;19.02;10.80;;;;;;;5.60;100.00;100257.34;10528366;28;20040;-73
2021/12/09 10:30:22;;;;;;;12.77;8.88;;;;;;;5.45;100.00;100257.28;10544272;28;20052;-72
2021/12/09 10:35:22;;;;;;;13.38;7.85;;;;;;;5.30;100.00;100267.16;10526288;28;20123;-73
2021/12/09 10:40:27;;;;;;;10.98;8.00;;;;;;;5.31;100.00;100258.91;10543850;28;20119;-73
2021/12/09 10:45:35;;;;;;;11.32;8.15;;;;;;;5.27;100.00;100265.66;10542842;28;20109;-73
2021/12/09 10:51:25;;;;;;;15.70;8.88;;;;;;;5.46;100.00;100250.91;10543541;28;20482;-72
2021/12/09 10:56:09;;;;;;;9.20;8.02;;;;;;;5.86;100.00;100256.94;10539217;28;20055;-73
2021/12/09 11:01:10;;;;;;;12.27;9.38;;;;;;;5.91;100.00;100251.84;10542879;28;20089;-72
2021/12/09 11:06:28;;;;;;;18.85;8.90;;;;;;;5.64;100.00;100255.13;10541834;28;20054;-73
2021/12/09 11:11:34;;;;;;;19.55;10.77;;;;;;;5.48;100.00;100254.22;10542847;28;20036;-73
2021/12/09 11:16:40;;;;;;;15.15;11.15;;;;;;;5.46;100.00;100258.13;10542925;28;20032;-74
2021/12/09 11:21:45;;;;;;;16.88;13.48;;;;;;;5.13;100.00;100248.44;10540840;28;20486;-73
2021/12/09 11:26:57;;;;;;;14.80;11.45;;;;;;;5.12;100.00;100251.31;10558213;28;20092;-76
2021/12/09 11:32:10;;;;;;;12.32;9.25;;;;;;;5.22;100.00;100241.19;10540061;28;20028;-76
2021/12/09 11:42:40;;;;;;;16.20;14.48;;;;;;;5.45;100.00;100237.66;10542435;28;20115;-75
2021/12/09 11:47:42;;;;;;;18.75;14.90;;;;;;;5.53;100.00;100234.91;10542334;28;20040;-76
2021/12/09 11:52:43;;;;;;;21.45;13.32;;;;;;;5.64;100.00;100237.16;10539614;28;20058;-75
2021/12/09 11:57:58;;;;;;;16.33;11.70;;;;;;;5.50;100.00;100230.72;10540215;28;20422;-75
2021/12/09 12:13:48;;;;;;;7.97;6.65;;;;;;;5.60;100.00;100233.16;10540617;28;20074;-75
2021/12/09 12:19:01;;;;;;;14.20;10.07;;;;;;;5.77;100.00;100228.47;10544859;28;20050;-78
2021/12/09 12:39:30;;;;;;;13.77;11.65;;;;;;;5.87;100.00;100222.81;10548708;28;20028;-77
2021/12/09 12:44:31;;;;;;;16.42;11.23;;;;;;;6.00;100.00;100226.59;10582276;28;20024;-79
2021/12/09 12:49:34;;;;;;;18.63;10.85;;;;;;;6.09;100.00;100230.00;10563263;28;20036;-77
2021/12/09 12:54:50;;;;;;;18.50;11.20;;;;;;;6.23;100.00;100237.25;10561729;28;20054;-77
2021/12/09 13:00:23;;;;;;;22.23;10.10;;;;;;;5.93;100.00;100232.88;10551779;28;20054;-76
2021/12/09 13:06:08;;;;;;;14.32;11.55;;;;;;;6.00;100.00;100231.16;10555022;28;20406;-76
2021/12/09 13:21:45;;;;;;;18.23;13.25;;;;;;;5.75;100.00;100225.97;10550945;28;20036;-77
2021/12/09 13:27:28;;;;;;;21.02;14.02;;;;;;;5.88;100.00;100230.72;10549636;28;20040;-76
2021/12/09 13:32:49;;;;;;;28.77;13.95;;;;;;;5.96;100.00;100233.34;10548496;28;20459;-77
2021/12/09 13:48:41;;;;;;;22.33;12.25;;;;;;;6.01;100.00;100228.25;10548020;28;20126;-78
2021/12/09 13:59:00;;;;;;;21.95;9.32;;;;;;;5.78;100.00;100224.78;10548139;28;20040;-80
2021/12/09 14:04:07;;;;;;;22.55;10.80;;;;;;;5.80;100.00;100220.03;10542925;28;20131;-80
2021/12/09 14:09:07;;;;;;;20.40;10.38;;;;;;;5.82;100.00;100221.53;10564834;28;20048;-79
2021/12/09 14:14:13;;;;;;;26.50;10.00;;;;;;;5.81;100.00;100219.88;10580938;28;20028;-77
2021/12/09 14:24:30;;;;;;;26.05;12.07;;;;;;;5.60;100.00;100222.41;10560540;28;20082;-77
2021/12/09 14:29:32;;;;;;;27.88;10.40;;;;;;;5.48;100.00;100213.94;10559030;28;20458;-77
2021/12/09 14:35:05;;;;;;;18.88;9.05;;;;;;;5.39;100.00;100215.03;10560405;28;20054;-78
2021/12/09 14:40:09;;;;;;;12.27;7.63;;;;;;;5.45;100.00;100224.22;10555504;28;20043;-77
2021/12/09 14:45:09;;;;;;;18.02;7.05;;;;;;;5.44;100.00;100220.72;10565387;28;20434;-79
2021/12/09 14:50:10;;;;;;;18.02;6.72;;;;;;;5.55;100.00;100232.84;10544802;28;20097;-79
2021/12/09 14:55:17;;;;;;;11.88;5.78;;;;;;;5.61;100.00;100218.69;10546503;28;20028;-78
2021/12/09 15:00:37;;;;;;;12.82;4.75;;;;;;;5.66;100.00;100213.63;10543895;28;20132;-80
2021/12/09 15:05:58;;;;;;;13.18;7.18;;;;;;;5.65;100.00;100203.06;10544631;28;20072;-79
2021/12/09 15:11:01;;;;;;;16.30;5.60;;;;;;;5.65;100.00;100209.28;10545791;28;20036;-79
2021/12/09 15:16:05;;;;;;;21.17;5.97;;;;;;;5.55;100.00;100197.94;10542761;28;20032;-79
2021/12/09 15:21:30;;;;;;;33.33;7.20;;;;;;;5.43;100.00;100188.69;10526916;28;20028;-79
2021/12/09 15:26:32;;;;;;;24.67;6.40;;;;;;;5.42;100.00;100189.69;10542562;28;20119;-78
2021/12/09 15:31:33;;;;;;;14.90;6.30;;;;;;;5.26;100.00;100191.47;10540008;28;20028;-78
2021/12/09 15:36:35;;;;;;;23.55;6.93;;;;;;;5.15;100.00;100189.25;10540496;28;20040;-80
2021/12/09 15:41:38;;;;;;;11.05;5.47;;;;;;;5.08;100.00;100185.59;10540468;28;20034;-80
2021/12/09 15:46:46;;;;;;;17.48;4.97;;;;;;;5.02;100.00;100183.63;10541295;28;20032;-79
2021/12/09 15:51:49;;;;;;;13.73;4.15;;;;;;;5.04;100.00;100190.50;10540750;28;20036;-79
2021/12/09 15:56:52;;;;;;;14.48;4.78;;;;;;;4.99;100.00;100192.03;10524681;28;20035;-79
2021/12/09 16:01:53;;;;;;;16.23;6.15;;;;;;;4.96;100.00;100198.59;10540732;28;20031;-78
2021/12/09 16:06:54;;;;;;;23.88;5.75;;;;;;;5.10;100.00;100195.13;10540092;28;20101;-78
2021/12/09 16:11:59;;;;;;;22.05;7.30;;;;;;;5.03;100.00;100186.13;10541927;28;20040;-78
2021/12/09 16:17:03;;;;;;;15.75;6.55;;;;;;;5.10;100.00;100188.94;10541289;28;20028;-79
2021/12/09 16:27:21;;;;;;;14.85;5.57;;;;;;;5.03;100.00;100193.34;10540012;28;20433;-78
2021/12/09 16:32:21;;;;;;;10.85;5.57;;;;;;;5.25;100.00;100195.19;10538955;28;20043;-78
2021/12/09 16:37:22;;;;;;;13.32;6.43;;;;;;;5.29;100.00;100183.06;10538920;28;20107;-79
2021/12/09 16:42:22;;;;;;;22.80;7.25;;;;;;;5.34;100.00;100186.06;10554039;28;20028;-80
2021/12/09 16:47:22;;;;;;;12.07;5.90;;;;;;;5.38;100.00;100177.63;10538722;28;20463;-79
2021/12/09 16:52:23;;;;;;;24.35;7.40;;;;;;;5.27;100.00;100178.91;10538327;28;20089;-79
2021/12/09 16:57:30;;;;;;;13.30;5.43;;;;;;;5.33;100.00;100179.03;10539483;28;20467;-79
2021/12/09 17:02:31;;;;;;;7.80;4.70;;;;;;;5.34;100.00;100199.47;10507690;28;20063;-79
2021/12/09 17:07:32;;;;;;;11.18;4.72;;;;;;;5.39;100.00;100196.25;10538071;28;20083;-81
2021/12/09 17:12:32;;;;;;;18.42;6.72;;;;;;;5.39;100.00;100203.47;10538945;28;20048;-78
2021/12/09 17:17:32;;;;;;;13.32;6.43;;;;;;;5.29;100.00;100204.53;10539098;28;20212;-79
2021/12/09 17:22:33;;;;;;;14.77;7.00;;;;;;;5.29;100.00;100187.59;10539759;28;20043;-79
2021/12/09 17:27:33;;;;;;;11.23;6.68;;;;;;;5.20;100.00;100186.88;10538914;28;20397;-79
2021/12/09 17:32:35;;;;;;;13.48;4.60;;;;;;;5.26;100.00;100175.38;10538664;28;20119;-79
2021/12/09 17:37:35;;;;;;;21.45;6.35;;;;;;;5.30;100.00;100179.38;10539798;28;20103;-79
2021/12/09 17:42:36;;;;;;;10.23;4.97;;;;;;;5.38;100.00;100172.28;10536989;28;20047;-79
2021/12/09 17:47:36;;;;;;;20.02;7.65;;;;;;;5.20;100.00;100175.25;10537270;28;20044;-79
2021/12/09 17:52:44;;;;;;;11.23;5.75;;;;;;;5.09;100.00;100172.00;10537390;28;20094;-79
2021/12/09 17:57:44;;;;;;;13.88;7.30;;;;;;;5.04;100.00;100179.78;10542927;28;20032;-78
2021/12/09 18:02:47;;;;;;;15.23;5.85;;;;;;;5.04;100.00;100169.03;10546821;28;20036;-80
2021/12/09 18:07:48;;;;;;;11.93;5.72;;;;;;;5.04;100.00;100169.03;10545197;28;20139;-78
2021/12/09 18:12:49;;;;;;;15.75;7.95;;;;;;;4.99;100.00;100167.91;10545318;28;20065;-78
2021/12/09 18:17:50;;;;;;;16.85;7.50;;;;;;;4.85;99.61;100162.28;10543721;28;20605;-77
2021/12/09 18:22:51;;;;;;;17.63;6.20;;;;;;;4.76;100.00;100162.53;10544981;28;20073;-78
2021/12/09 18:27:51;;;;;;;18.23;6.45;;;;;;;4.69;99.21;100166.91;10527065;28;20046;-79
2021/12/09 18:32:52;;;;;;;21.35;8.38;;;;;;;4.63;98.72;100166.63;10544569;28;20040;-79
2021/12/09 18:37:55;;;;;;;20.13;8.15;;;;;;;4.52;98.06;100174.22;10526194;28;20040;-78
2021/12/09 18:42:55;;;;;;;13.05;7.40;;;;;;;4.43;98.57;100176.97;10527146;28;20435;-77
2021/12/09 18:47:56;;;;;;;24.67;6.82;;;;;;;4.41;98.72;100173.63;10543102;28;20036;-76
2021/12/09 18:52:57;;;;;;;22.38;6.05;;;;;;;4.50;99.45;100161.00;10542418;28;20040;-78
2021/12/09 18:57:57;;;;;;;22.75;7.68;;;;;;;4.39;99.00;100154.19;10542605;28;20085;-77
2021/12/09 19:02:58;;;;;;;11.85;4.80;;;;;;;4.30;99.03;100143.69;10543768;28;20101;-76
2021/12/09 19:07:59;;;;;;;15.88;6.18;;;;;;;4.27;97.84;100126.09;10541471;28;20482;-77
2021/12/09 19:12:59;;;;;;;9.05;5.60;;;;;;;4.15;99.07;100124.84;10544987;28;20093;-78
2021/12/09 19:18:06;;;;;;;16.40;6.05;;;;;;;4.11;98.85;100113.63;10542816;28;20084;-78
2021/12/09 19:23:06;;;;;;;11.15;7.35;;;;;;;4.14;98.76;100110.59;10528257;28;20054;-76
2021/12/09 19:28:07;;;;;;;15.48;7.50;;;;;;;4.14;99.05;100099.88;10543478;28;20105;-78
2021/12/09 19:33:08;;;;;;;23.75;8.25;;;;;;;4.07;98.57;100096.22;10542663;28;20531;-76
2021/12/09 19:38:09;;;;;;;15.15;7.40;;;;;;;4.08;97.73;100083.66;10541890;28;20141;-79
2021/12/09 19:43:09;;;;;;;26.05;11.20;;;;;;;4.05;98.37;100071.47;10542660;28;20060;-78
2021/12/09 19:48:10;;;;;;;24.45;10.68;;;;;;;3.93;98.24;100063.00;10541515;28;20487;-76
2021/12/09 19:53:10;;;;;;;16.75;9.63;;;;;;;4.00;97.90;100063.13;10543220;28;20383;-80
2021/12/09 19:58:11;;;;;;;20.35;9.55;;;;;;;3.85;96.66;100059.50;10540909;28;20032;-76
2021/12/09 20:03:11;;;;;;;14.38;10.43;;;;;;;3.79;97.81;100058.34;10542323;28;20043;-78
2021/12/09 20:08:12;;;;;;;18.58;9.73;;;;;;;3.86;98.52;100040.59;10558353;28;20138;-81
2021/12/09 20:13:12;;;;;;;23.00;12.20;;;;;;;3.89;97.81;100034.03;10526334;28;20067;-81
2021/12/09 20:18:12;;;;;;;17.58;11.00;;;;;;;3.85;97.95;100038.09;10555431;28;20028;-82
2021/12/09 20:23:13;;;;;;;26.42;13.80;;;;;;;3.75;98.77;100029.44;10560230;28;20067;-83
2021/12/09 20:28:14;;;;;;;34.42;14.43;;;;;;;3.77;99.06;100025.56;10541733;28;20028;-82
2021/12/09 20:33:14;;;;;;;29.73;15.75;;;;;;;3.82;98.58;100017.84;10525451;28;20109;-83
2021/12/09 20:38:14;;;;;;;27.65;14.98;;;;;;;3.71;98.38;100008.34;10540407;28;20082;-82
2021/12/09 20:43:15;;;;;;;23.92;13.07;;;;;;;3.56;97.62;99998.56;10542151;28;20118;-84
2021/12/09 20:48:15;;;;;;;19.20;12.77;;;;;;;3.55;97.94;99992.38;10542755;28;20111;-86
2021/12/09 20:53:16;;;;;;;35.22;15.10;;;;;;;3.50;99.45;99984.03;10544840;28;20031;-85
2021/12/09 20:58:18;;;;;;;44.97;16.83;;;;;;;3.60;99.39;99975.78;10541838;28;20040;-82
2021/12/09 21:03:19;;;;;;;27.25;15.82;;;;;;;3.58;99.27;99972.47;10544095;28;20105;-85
2021/12/09 21:08:20;;;;;;;35.85;15.07;;;;;;;3.47;99.24;99954.94;10540681;28;20088;-84
2021/12/09 21:13:20;;;;;;;30.42;15.65;;;;;;;3.40;98.84;99954.78;10539504;28;20028;-85
2021/12/09 21:18:21;;;;;;;28.98;14.02;;;;;;;3.34;100.00;99938.59;10538724;28;20468;-81
2021/12/09 21:23:22;;;;;;;23.42;14.45;;;;;;;3.28;99.31;99928.59;10543008;28;20055;-85
2021/12/09 21:28:22;;;;;;;27.77;15.25;;;;;;;3.20;99.28;99935.66;10543877;28;20134;-86
2021/12/09 21:33:27;;;;;;;23.20;13.15;;;;;;;3.18;99.60;99929.63;10565616;28;20028;-85
2021/12/09 21:38:29;;;;;;;26.33;15.27;;;;;;;3.16;100.00;99914.75;10551350;28;20039;-84
2021/12/09 21:43:30;;;;;;;28.80;14.80;;;;;;;3.18;100.00;99905.56;10552557;28;20040;-85
2021/12/09 21:48:30;;;;;;;21.77;12.10;;;;;;;3.18;99.67;99908.22;10551935;28;20503;-82
2021/12/09 21:53:30;;;;;;;27.92;13.25;;;;;;;3.11;99.10;99898.41;10546688;28;20031;-84
2021/12/09 21:58:31;;;;;;;28.35;14.85;;;;;;;3.06;98.84;99887.38;10548171;28;20036;-82
2021/12/09 22:03:31;;;;;;;21.33;13.18;;;;;;;3.04;99.16;99884.91;10548138;28;20051;-83
2021/12/09 22:08:32;;;;;;;26.65;12.60;;;;;;;3.03;99.60;99869.84;10548398;28;20084;-83
2021/12/09 22:13:32;;;;;;;27.63;11.77;;;;;;;3.01;99.12;99867.34;10550497;28;20123;-82
2021/12/09 22:18:32;;;;;;;15.13;8.73;;;;;;;2.98;99.62;99848.97;10548796;28;20463;-84
2021/12/09 22:23:33;;;;;;;29.85;11.57;;;;;;;2.99;98.43;99841.78;10551767;28;20036;-85
2021/12/09 22:28:34;;;;;;;18.40;9.30;;;;;;;2.91;99.26;99823.94;10552954;28;20387;-85
2021/12/09 22:33:34;;;;;;;24.08;10.02;;;;;;;2.93;99.15;99807.72;10580628;28;20031;-85
2021/12/09 22:38:35;;;;;;;15.23;8.18;;;;;;;2.92;99.41;99806.06;10584546;28;20020;-85
2021/12/09 22:43:36;;;;;;;25.00;9.38;;;;;;;2.91;99.77;99793.72;10571858;28;20024;-84
2021/12/09 22:48:36;;;;;;;23.05;10.52;;;;;;;2.87;100.00;99795.03;10551884;28;20040;-84
2021/12/09 22:53:40;;;;;;;15.00;8.63;;;;;;;2.94;99.04;99793.38;10553547;28;20059;-85
2021/12/09 22:58:40;;;;;;;22.50;9.77;;;;;;;2.86;99.32;99778.19;10529160;28;20032;-85
2021/12/09 23:03:40;;;;;;;19.48;10.38;;;;;;;2.80;100.00;99766.34;10544503;28;20028;-84
2021/12/09 23:08:46;;;;;;;12.45;9.45;;;;;;;2.76;100.00;99765.03;10545343;28;20048;-84
2021/12/09 23:13:50;;;;;;;18.88;10.02;;;;;;;2.61;100.00;99744.56;10528858;28;20040;-85
2021/12/09 23:18:51;;;;;;;29.23;12.25;;;;;;;2.52;100.00;99730.38;10526493;28;20028;-84
2021/12/09 23:23:52;;;;;;;30.20;9.95;;;;;;;2.41;100.00;99720.09;10542842;28;20387;-84
2021/12/09 23:28:52;;;;;;;24.75;11.10;;;;;;;2.34;100.00;99711.94;10544677;28;20032;-84
2021/12/09 23:33:54;;;;;;;17.88;11.15;;;;;;;2.29;100.00;99696.44;10543132;28;20036;-84
2021/12/09 23:38:55;;;;;;;27.20;8.73;;;;;;;2.28;99.90;99683.25;10541413;28;20043;-84
2021/12/09 23:43:56;;;;;;;23.33;11.88;;;;;;;2.21;100.00;99682.28;10543440;28;20549;-84
2021/12/09 23:48:58;;;;;;;18.33;10.85;;;;;;;2.20;100.00;99667.25;10543842;28;20148;-83
2021/12/09 23:53:58;;;;;;;21.02;10.32;;;;;;;2.21;100.00;99666.28;10543283;28;20039;-84
2021/12/09 23:59:00;;;;;;;24.80;14.00;;;;;;;2.20;100.00;99645.88;10541876;28;20070;-84
